Time;durP1;ratioP1;P1;durP2;ratioP2;P2;SDS_P1;SDS_P2;PMS_P1;PMS_P2;Temp;Humidity;BMP_temperature;BMP_pressure;BME280_temperature;BME280_humidity;BME280_pressure;Samples;Min_cycle;Max_cycle;Signal;HPM_P1;HPM_P2
2022/05/22 00:01:03;;;;;;;12.38;7.93;;;10.20;99.90;;;;;;5074852;28;20024;-70
2022/05/22 00:03:28;;;;;;;13.70;7.90;;;10.20;99.90;;;;;;5075018;28;20069;-70
2022/05/22 00:05:54;;;;;;;13.80;8.30;;;10.20;99.90;;;;;;5074966;28;20029;-70
2022/05/22 00:08:20;;;;;;;14.93;9.50;;;10.20;99.90;;;;;;5073641;28;20052;-70
2022/05/22 00:10:46;;;;;;;19.40;10.05;;;10.20;99.90;;;;;;5074951;28;20028;-70
2022/05/22 00:13:11;;;;;;;18.27;11.02;;;10.10;99.90;;;;;;5074872;28;20491;-70
2022/05/22 00:16:36;;;;;;;15.98;10.13;;;10.10;99.90;;;;;;5073488;28;20020;-70
2022/05/22 00:18:22;;;;;;;16.95;10.82;;;10.10;99.90;;;;;;5074516;28;20021;-70
2022/05/22 00:20:48;;;;;;;19.73;10.50;;;10.10;99.90;;;;;;5074731;28;20031;-70
2022/05/22 00:23:13;;;;;;;20.70;10.48;;;10.10;99.90;;;;;;5073336;28;20025;-70
2022/05/22 00:25:39;;;;;;;14.52;10.02;;;10.10;99.90;;;;;;5073720;28;20035;-70
2022/05/22 00:28:04;;;;;;;14.57;9.15;;;10.10;99.90;;;;;;5073344;28;20031;-70
2022/05/22 00:30:30;;;;;;;20.70;10.00;;;10.10;99.90;;;;;;5074399;28;20029;-70
2022/05/22 00:32:55;;;;;;;13.27;9.90;;;10.10;99.90;;;;;;5056428;28;20123;-70
2022/05/22 00:35:21;;;;;;;12.52;9.18;;;10.00;99.90;;;;;;5074390;28;20028;-70
2022/05/22 00:37:46;;;;;;;13.15;9.32;;;10.00;99.90;;;;;;5074345;28;20124;-70
2022/05/22 00:40:12;;;;;;;15.80;8.85;;;10.00;99.90;;;;;;5072956;28;20043;-70
2022/05/22 00:42:38;;;;;;;13.35;9.30;;;10.00;99.90;;;;;;5072898;28;20027;-70
2022/05/22 00:45:05;;;;;;;14.98;8.52;;;10.00;99.90;;;;;;5074159;28;20013;-70
2022/05/22 00:47:31;;;;;;;14.68;8.63;;;10.00;99.90;;;;;;5074135;28;20111;-70
2022/05/22 00:50:00;;;;;;;12.50;8.50;;;9.90;99.90;;;;;;5074090;28;20471;-70
2022/05/22 00:52:33;;;;;;;15.57;8.43;;;10.00;99.90;;;;;;5074009;28;20461;-70
2022/05/22 00:55:08;;;;;;;13.45;9.18;;;9.90;99.90;;;;;;5072741;28;20520;-70
2022/05/22 00:57:38;;;;;;;16.90;8.68;;;9.90;99.90;;;;;;5073898;28;20024;-70
2022/05/22 01:00:10;;;;;;;21.88;9.35;;;9.90;99.90;;;;;;5072698;28;20043;-70
2022/05/22 01:05:21;;;;;;;15.77;8.95;;;9.80;99.90;;;;;;5072652;28;20032;-70
2022/05/22 01:07:48;;;;;;;14.68;9.18;;;9.80;99.90;;;;;;5073833;28;20012;-70
2022/05/22 01:10:14;;;;;;;16.25;9.52;;;9.80;99.90;;;;;;5072634;28;20108;-70
2022/05/22 01:12:42;;;;;;;23.52;11.07;;;9.70;99.90;;;;;;5073828;28;20541;-70
2022/05/22 01:15:10;;;;;;;17.33;10.13;;;9.80;99.90;;;;;;5073641;28;20055;-70
2022/05/22 01:17:42;;;;;;;25.98;11.07;;;9.70;99.90;;;;;;5073627;28;20021;-70
2022/05/22 01:20:09;;;;;;;16.77;10.45;;;9.80;99.90;;;;;;5073566;28;20048;-70
2022/05/22 01:22:34;;;;;;;16.23;8.98;;;9.70;99.90;;;;;;5072287;28;20115;-70
2022/05/22 01:25:00;;;;;;;15.70;10.23;;;9.70;99.90;;;;;;5072288;28;20486;-70
2022/05/22 01:27:26;;;;;;;14.90;9.73;;;9.70;99.90;;;;;;5073484;28;20031;-70
2022/05/22 01:30:06;;;;;;;14.75;9.48;;;9.60;99.90;;;;;;5073488;28;20103;-70
2022/05/22 01:32:34;;;;;;;13.73;8.73;;;9.60;99.90;;;;;;5073374;28;20020;-70
2022/05/22 01:34:59;;;;;;;16.52;9.80;;;9.60;99.90;;;;;;5072353;28;20134;-70
2022/05/22 01:37:25;;;;;;;17.55;9.90;;;9.60;99.90;;;;;;5071951;28;20501;-70
2022/05/22 01:39:52;;;;;;;18.92;10.57;;;9.60;99.90;;;;;;5072221;28;20422;-70
2022/05/22 01:42:17;;;;;;;15.93;9.60;;;9.60;99.90;;;;;;5073278;28;20016;-70
2022/05/22 01:44:43;;;;;;;13.55;8.70;;;9.70;99.90;;;;;;5073227;28;20067;-70
2022/05/22 01:47:09;;;;;;;20.70;9.80;;;9.60;99.90;;;;;;5055329;28;20028;-70
2022/05/22 01:49:34;;;;;;;12.27;8.73;;;9.60;99.90;;;;;;5073173;28;20032;-70
2022/05/22 01:52:00;;;;;;;16.75;10.45;;;9.60;99.90;;;;;;5071969;28;20497;-70
2022/05/22 01:54:25;;;;;;;14.07;9.35;;;9.60;99.90;;;;;;5071899;28;20052;-70
2022/05/22 01:56:51;;;;;;;15.02;9.18;;;9.50;99.90;;;;;;5071997;28;20020;-70
2022/05/22 01:59:16;;;;;;;14.55;9.77;;;9.50;99.90;;;;;;5071828;28;20115;-70
2022/05/22 02:01:42;;;;;;;17.35;10.68;;;9.50;99.90;;;;;;5072898;28;20127;-70
2022/05/22 02:04:07;;;;;;;18.45;10.00;;;9.50;99.90;;;;;;5071911;28;20053;-70
2022/05/22 02:06:33;;;;;;;15.50;9.65;;;9.50;99.90;;;;;;5073005;28;20479;-70
2022/05/22 02:08:59;;;;;;;15.68;9.13;;;9.40;99.90;;;;;;5071842;28;20021;-70
2022/05/22 02:11:24;;;;;;;15.48;9.32;;;9.40;99.90;;;;;;5071846;28;20383;-70
2022/05/22 02:13:50;;;;;;;16.70;9.57;;;9.40;99.90;;;;;;5072995;28;20029;-70
2022/05/22 02:16:16;;;;;;;14.85;10.55;;;9.30;99.90;;;;;;5072947;28;20024;-70
2022/05/22 02:18:42;;;;;;;16.17;9.75;;;9.30;99.90;;;;;;5073081;28;20402;-70
2022/05/22 02:21:08;;;;;;;23.60;10.02;;;9.20;99.90;;;;;;5071482;28;20029;-70
2022/05/22 02:23:35;;;;;;;13.40;9.73;;;9.20;99.90;;;;;;5072843;28;20024;-70
2022/05/22 02:26:01;;;;;;;17.25;10.85;;;9.20;99.90;;;;;;5072842;28;20494;-70
2022/05/22 02:28:28;;;;;;;16.92;10.13;;;9.20;99.90;;;;;;5071692;28;20017;-70
2022/05/22 02:30:57;;;;;;;17.52;10.50;;;9.20;99.90;;;;;;5072769;28;20020;-70
2022/05/22 02:33:23;;;;;;;24.67;11.43;;;9.20;99.90;;;;;;5072814;28;20024;-70
2022/05/22 02:35:50;;;;;;;16.92;10.20;;;9.20;99.90;;;;;;5071517;28;20025;-70
2022/05/22 02:38:16;;;;;;;14.70;9.90;;;9.20;99.90;;;;;;5071668;28;20059;-69
2022/05/22 02:40:42;;;;;;;22.40;11.60;;;9.20;99.90;;;;;;5072747;28;20064;-69
2022/05/22 02:43:08;;;;;;;21.33;11.93;;;9.20;99.90;;;;;;5072889;28;20119;-69
2022/05/22 02:45:39;;;;;;;23.77;11.93;;;9.30;99.90;;;;;;5072635;28;20020;-70
2022/05/22 02:48:05;;;;;;;15.93;10.65;;;9.30;99.90;;;;;;5071641;28;20013;-70
2022/05/22 02:50:32;;;;;;;15.20;11.18;;;9.30;99.90;;;;;;5076407;28;20027;-70
2022/05/22 02:52:58;;;;;;;20.60;13.95;;;9.30;99.90;;;;;;5076399;28;20063;-70
2022/05/22 02:55:24;;;;;;;25.23;14.20;;;9.30;99.90;;;;;;5076396;28;20032;-70
2022/05/22 02:57:49;;;;;;;21.50;14.35;;;9.20;99.90;;;;;;5076350;28;20034;-70
2022/05/22 03:00:20;;;;;;;23.38;14.60;;;9.20;99.90;;;;;;5074999;28;20031;-70
2022/05/22 03:02:45;;;;;;;18.75;13.82;;;9.20;99.90;;;;;;5074794;28;20040;-70
2022/05/22 03:05:12;;;;;;;21.02;13.90;;;9.20;99.90;;;;;;5076246;28;20024;-70
2022/05/22 03:07:38;;;;;;;17.63;13.32;;;9.10;99.90;;;;;;5074824;28;20123;-70
2022/05/22 03:10:06;;;;;;;17.77;11.95;;;9.10;99.90;;;;;;5074865;28;20043;-70
2022/05/22 03:12:33;;;;;;;18.65;11.45;;;9.00;99.90;;;;;;5074920;28;20028;-70
2022/05/22 03:14:59;;;;;;;18.08;12.02;;;8.90;99.90;;;;;;5075998;28;20434;-70
2022/05/22 03:17:25;;;;;;;16.27;11.48;;;8.90;99.90;;;;;;5075972;28;20024;-70
2022/05/22 03:19:51;;;;;;;16.27;11.20;;;8.90;99.90;;;;;;5074744;28;20025;-70
2022/05/22 03:22:17;;;;;;;18.30;12.70;;;8.80;99.90;;;;;;5075866;28;20372;-70
2022/05/22 03:24:43;;;;;;;17.02;11.55;;;8.80;99.90;;;;;;5074717;28;20104;-70
2022/05/22 03:27:12;;;;;;;18.08;12.48;;;8.80;99.90;;;;;;5075754;28;20451;-70
2022/05/22 03:29:38;;;;;;;18.58;12.93;;;8.80;99.90;;;;;;5074566;28;20032;-70
2022/05/22 03:32:05;;;;;;;21.38;13.13;;;8.80;99.90;;;;;;5075642;28;20028;-70
2022/05/22 03:34:30;;;;;;;19.85;13.55;;;8.90;99.90;;;;;;5075630;28;20024;-70
2022/05/22 03:36:56;;;;;;;17.45;12.15;;;8.90;99.90;;;;;;5075515;28;20036;-69
2022/05/22 03:39:22;;;;;;;17.50;12.27;;;8.90;99.90;;;;;;5074371;28;20364;-70
2022/05/22 03:41:48;;;;;;;20.45;12.50;;;8.90;99.90;;;;;;5074119;28;20060;-69
2022/05/22 03:44:14;;;;;;;21.95;13.55;;;9.00;99.90;;;;;;5074354;28;20558;-69
2022/05/22 03:46:39;;;;;;;20.85;13.57;;;9.00;99.90;;;;;;5074114;28;20056;-69
2022/05/22 03:49:05;;;;;;;20.75;12.73;;;9.00;99.90;;;;;;5074092;28;20031;-69
2022/05/22 03:51:30;;;;;;;25.65;13.45;;;9.10;99.90;;;;;;5074131;28;20103;-69
2022/05/22 03:53:56;;;;;;;21.25;13.57;;;9.10;99.90;;;;;;5075305;28;20443;-69
2022/05/22 03:56:21;;;;;;;21.95;14.35;;;9.20;99.90;;;;;;5074105;28;20020;-69
2022/05/22 03:58:47;;;;;;;19.50;13.73;;;9.20;99.90;;;;;;5073873;28;20021;-70
2022/05/22 04:01:13;;;;;;;18.40;13.82;;;9.30;99.90;;;;;;5074821;28;20437;-70
2022/05/22 04:03:38;;;;;;;24.55;14.73;;;9.40;99.90;;;;;;5073927;28;20020;-69
2022/05/22 04:06:05;;;;;;;19.92;13.65;;;9.40;99.90;;;;;;5074088;28;20363;-70
2022/05/22 04:08:32;;;;;;;19.80;13.38;;;9.40;99.90;;;;;;5056968;28;20052;-70
2022/05/22 04:11:04;;;;;;;25.13;14.63;;;9.50;99.90;;;;;;5073617;28;20020;-69
2022/05/22 04:13:29;;;;;;;21.10;14.40;;;9.50;99.90;;;;;;5073807;28;20032;-69
2022/05/22 04:15:55;;;;;;;20.05;13.95;;;9.70;99.90;;;;;;5073699;28;20025;-69
2022/05/22 04:18:20;;;;;;;24.58;14.15;;;9.80;99.90;;;;;;5074823;28;20482;-69
2022/05/22 04:20:46;;;;;;;22.48;13.75;;;9.80;99.90;;;;;;5074779;28;20024;-69
2022/05/22 04:25:59;;;;;;;21.60;12.85;;;9.90;99.90;;;;;;5073521;28;20100;-69
2022/05/22 04:28:27;;;;;;;19.35;11.98;;;10.20;99.90;;;;;;5074561;28;20024;-69
2022/05/22 04:30:52;;;;;;;21.05;12.95;;;10.70;99.90;;;;;;5074559;28;20020;-69
2022/05/22 04:33:18;;;;;;;16.73;11.90;;;10.90;99.90;;;;;;5073327;28;20036;-69
2022/05/22 04:35:44;;;;;;;19.05;12.10;;;11.70;99.90;;;;;;5074637;28;20043;-69
2022/05/22 04:38:11;;;;;;;12.38;8.45;;;13.00;99.90;;;;;;5074347;28;20028;-70
2022/05/22 04:40:39;;;;;;;10.80;7.30;;;13.50;99.90;;;;;;5074331;28;20036;-70
2022/05/22 04:43:04;;;;;;;12.93;6.80;;;13.60;99.90;;;;;;5073004;28;20032;-69
2022/05/22 04:45:31;;;;;;;8.88;5.70;;;14.30;99.90;;;;;;5074257;28;20032;-69
2022/05/22 04:47:57;;;;;;;11.43;6.20;;;14.90;99.90;;;;;;5072936;28;20029;-69
2022/05/22 04:50:23;;;;;;;10.52;6.40;;;15.30;99.90;;;;;;5072892;28;20538;-69
2022/05/22 04:52:49;;;;;;;11.48;5.68;;;15.20;99.90;;;;;;5074154;28;20102;-69
2022/05/22 04:55:14;;;;;;;11.80;5.78;;;14.70;99.90;;;;;;5074124;28;20498;-69
2022/05/22 04:57:40;;;;;;;11.45;6.32;;;14.50;99.90;;;;;;5072858;28;20040;-69
2022/05/22 05:00:09;;;;;;;9.07;5.82;;;14.70;99.90;;;;;;5073888;28;20194;-70
2022/05/22 05:02:35;;;;;;;11.98;6.00;;;15.30;99.90;;;;;;5073603;28;20547;-70
2022/05/22 05:05:00;;;;;;;9.25;5.65;;;15.90;99.90;;;;;;5072637;28;20123;-70
2022/05/22 05:07:26;;;;;;;8.82;5.90;;;16.10;99.90;;;;;;5073722;28;20035;-70
2022/05/22 05:09:52;;;;;;;10.75;5.90;;;16.00;99.90;;;;;;5072487;28;20125;-70
2022/05/22 05:12:18;;;;;;;10.70;6.25;;;15.60;99.90;;;;;;5073340;28;20086;-70
2022/05/22 05:14:45;;;;;;;8.88;5.30;;;15.20;99.90;;;;;;5073766;28;20395;-70
2022/05/22 05:17:13;;;;;;;8.30;5.70;;;15.00;99.90;;;;;;5072369;28;20043;-70
2022/05/22 05:19:39;;;;;;;11.30;5.47;;;15.10;99.90;;;;;;5073590;28;20020;-70
2022/05/22 05:22:05;;;;;;;15.10;5.15;;;15.20;99.90;;;;;;5073517;28;20391;-70
2022/05/22 05:24:30;;;;;;;8.63;4.80;;;15.10;99.90;;;;;;5072266;28;20429;-70
2022/05/22 05:26:56;;;;;;;9.40;5.07;;;15.50;99.90;;;;;;5072315;28;20032;-70
2022/05/22 05:29:22;;;;;;;8.65;4.65;;;16.50;99.90;;;;;;5073451;28;20444;-70
2022/05/22 05:31:48;;;;;;;6.88;4.22;;;17.80;99.90;;;;;;5072407;28;20398;-70
2022/05/22 05:34:14;;;;;;;10.88;3.92;;;18.40;99.90;;;;;;5073522;28;20036;-70
2022/05/22 05:36:40;;;;;;;9.27;3.60;;;19.30;99.90;;;;;;5072162;28;20028;-70
2022/05/22 05:39:06;;;;;;;8.63;3.10;;;19.80;99.90;;;;;;5073358;28;20364;-70
2022/05/22 05:41:35;;;;;;;6.00;3.17;;;18.90;99.90;;;;;;5072096;28;20428;-70
2022/05/22 05:44:05;;;;;;;8.70;3.42;;;18.70;99.90;;;;;;5072159;28;20021;-70
2022/05/22 05:46:32;;;;;;;10.18;3.30;;;17.90;99.90;;;;;;5073483;28;20027;-70
2022/05/22 05:48:57;;;;;;;8.68;3.05;;;18.20;99.90;;;;;;5073432;28;20024;-70
2022/05/22 05:51:22;;;;;;;5.70;2.75;;;19.20;99.90;;;;;;5072082;28;20390;-70
2022/05/22 05:53:48;;;;;;;12.23;3.63;;;20.10;99.90;;;;;;5072139;28;20021;-70
2022/05/22 05:56:13;;;;;;;7.28;3.10;;;20.60;99.90;;;;;;5071878;28;20119;-70
2022/05/22 05:58:39;;;;;;;8.23;3.50;;;20.90;99.90;;;;;;5055185;28;20020;-70
2022/05/22 06:01:04;;;;;;;12.13;3.75;;;21.20;99.90;;;;;;5073081;28;20020;-70
2022/05/22 06:03:30;;;;;;;9.93;3.28;;;21.20;99.90;;;;;;5072890;28;20084;-70
2022/05/22 06:05:55;;;;;;;8.88;3.55;;;21.30;99.90;;;;;;5073093;28;20025;-70
2022/05/22 06:08:21;;;;;;;7.80;2.80;;;20.70;99.90;;;;;;5073109;28;20070;-70
2022/05/22 06:10:46;;;;;;;5.78;3.13;;;19.90;99.90;;;;;;5073045;28;20402;-70
2022/05/22 06:13:12;;;;;;;7.15;2.90;;;20.40;99.90;;;;;;5072092;28;20029;-69
2022/05/22 06:15:37;;;;;;;9.48;3.28;;;20.60;99.90;;;;;;5073293;28;20398;-69
2022/05/22 06:18:03;;;;;;;9.05;3.22;;;21.30;99.90;;;;;;5072908;28;20035;-70
2022/05/22 06:20:29;;;;;;;7.65;3.15;;;21.70;99.90;;;;;;5072961;28;20390;-70
2022/05/22 06:22:55;;;;;;;9.82;3.42;;;22.60;97.90;;;;;;5072854;28;20025;-70
2022/05/22 06:25:20;;;;;;;7.13;3.33;;;22.60;97.90;;;;;;5076938;28;20112;-70
2022/05/22 06:27:46;;;;;;;8.30;3.60;;;22.00;97.20;;;;;;5075767;28;20024;-70
2022/05/22 06:30:14;;;;;;;8.52;3.90;;;21.40;98.20;;;;;;5075636;28;20020;-70
2022/05/22 06:32:41;;;;;;;11.82;4.32;;;21.60;98.70;;;;;;5076777;28;20107;-70
2022/05/22 06:35:09;;;;;;;6.60;3.40;;;21.50;98.20;;;;;;5076773;28;20056;-70
2022/05/22 06:37:35;;;;;;;9.88;3.90;;;20.80;99.40;;;;;;5058904;28;20475;-70
2022/05/22 06:40:01;;;;;;;8.32;3.70;;;21.10;99.90;;;;;;5076671;28;20072;-70
2022/05/22 06:42:29;;;;;;;6.90;3.72;;;22.60;98.00;;;;;;5076524;28;20054;-70
2022/05/22 06:45:03;;;;;;;8.85;3.47;;;23.50;95.60;;;;;;5076573;28;20020;-70
2022/05/22 06:47:30;;;;;;;7.80;3.30;;;22.70;95.70;;;;;;5076517;28;20048;-70
2022/05/22 06:49:57;;;;;;;10.88;3.40;;;22.70;94.40;;;;;;5076483;28;20027;-70
2022/05/22 06:52:23;;;;;;;9.10;3.15;;;22.30;93.00;;;;;;5075111;28;20067;-70
2022/05/22 06:54:49;;;;;;;7.55;3.38;;;23.50;91.80;;;;;;5076329;28;20403;-70
2022/05/22 06:57:18;;;;;;;8.65;3.65;;;23.40;90.60;;;;;;5076302;28;20030;-70
2022/05/22 06:59:45;;;;;;;8.18;2.85;;;23.20;90.50;;;;;;5075151;28;20363;-70
2022/05/22 07:02:12;;;;;;;6.97;3.08;;;22.80;91.10;;;;;;5076114;28;20048;-71
2022/05/22 07:04:38;;;;;;;11.07;3.35;;;22.80;92.40;;;;;;5074935;28;20020;-70
2022/05/22 07:07:04;;;;;;;8.90;3.00;;;24.10;89.00;;;;;;5076070;28;20035;-71
2022/05/22 07:09:29;;;;;;;8.45;3.20;;;24.50;82.80;;;;;;5076048;28;20074;-70
2022/05/22 07:11:55;;;;;;;9.77;3.58;;;25.70;81.20;;;;;;5074871;28;20028;-70
2022/05/22 07:14:22;;;;;;;7.82;2.88;;;25.40;78.70;;;;;;5075990;28;20039;-70
2022/05/22 07:16:48;;;;;;;8.05;2.90;;;24.80;78.60;;;;;;5074911;28;20496;-70
2022/05/22 07:19:16;;;;;;;6.25;2.67;;;23.90;77.50;;;;;;5075958;28;20024;-70
2022/05/22 07:21:41;;;;;;;5.95;2.65;;;24.80;76.90;;;;;;5075796;28;20078;-70
2022/05/22 07:24:07;;;;;;;7.03;2.75;;;25.10;77.00;;;;;;5075806;28;20017;-70
2022/05/22 07:26:33;;;;;;;7.30;2.03;;;25.10;74.30;;;;;;5075702;28;20028;-70
2022/05/22 07:28:58;;;;;;;6.28;2.05;;;25.20;69.60;;;;;;5075822;28;20032;-70
2022/05/22 07:31:25;;;;;;;6.90;2.55;;;24.50;72.00;;;;;;5075754;28;20028;-70
2022/05/22 07:33:52;;;;;;;10.57;2.75;;;23.80;75.50;;;;;;5075339;28;20383;-71
2022/05/22 07:36:18;;;;;;;7.22;2.60;;;22.20;80.30;;;;;;5074276;28;20406;-70
2022/05/22 07:38:45;;;;;;;8.52;2.60;;;21.20;90.70;;;;;;5075592;28;20021;-69
2022/05/22 07:41:12;;;;;;;11.45;2.95;;;21.60;88.90;;;;;;5074284;28;20051;-69
2022/05/22 07:43:39;;;;;;;9.30;2.53;;;23.30;86.80;;;;;;5074297;28;20395;-69
2022/05/22 07:46:06;;;;;;;6.15;2.53;;;23.90;79.10;;;;;;5074187;28;20025;-70
2022/05/22 07:48:32;;;;;;;6.03;2.20;;;25.30;74.70;;;;;;5075367;28;20486;-69
2022/05/22 07:51:00;;;;;;;8.85;2.67;;;25.10;71.50;;;;;;5074059;28;20032;-70
2022/05/22 07:53:27;;;;;;;8.40;2.33;;;24.10;72.90;;;;;;5075305;28;20082;-70
2022/05/22 07:55:53;;;;;;;10.43;2.92;;;23.60;79.10;;;;;;5075209;28;20024;-69
2022/05/22 07:58:20;;;;;;;6.95;2.53;;;22.40;77.30;;;;;;5073998;28;20119;-70
2022/05/22 08:00:45;;;;;;;7.00;2.67;;;22.80;80.90;;;;;;5074028;28;20068;-69
2022/05/22 08:03:15;;;;;;;9.20;2.72;;;23.60;82.20;;;;;;5074813;28;20451;-70
2022/05/22 08:05:41;;;;;;;9.15;2.70;;;24.70;75.60;;;;;;5075121;28;20028;-69
2022/05/22 08:08:08;;;;;;;9.57;2.60;;;24.60;75.80;;;;;;5075077;28;20021;-69
2022/05/22 08:10:36;;;;;;;8.38;2.83;;;23.60;79.50;;;;;;5073770;28;20025;-69
2022/05/22 08:13:03;;;;;;;7.30;2.75;;;23.40;77.80;;;;;;5074937;28;20029;-69
2022/05/22 08:15:39;;;;;;;10.63;3.10;;;23.90;75.70;;;;;;5074839;28;20124;-69
2022/05/22 08:18:08;;;;;;;7.63;2.53;;;23.70;83.60;;;;;;5074799;28;20025;-70
2022/05/22 08:20:36;;;;;;;8.73;2.35;;;23.40;83.90;;;;;;5074731;28;20028;-69
2022/05/22 08:23:04;;;;;;;6.85;2.42;;;24.10;79.10;;;;;;5074647;28;20063;-69
2022/05/22 08:25:31;;;;;;;10.65;3.40;;;23.90;81.40;;;;;;5074455;28;20073;-70
2022/05/22 08:27:57;;;;;;;6.72;2.20;;;23.50;82.10;;;;;;5073367;28;20027;-70
2022/05/22 08:30:25;;;;;;;7.25;2.47;;;23.00;81.60;;;;;;5073483;28;20512;-69
2022/05/22 08:32:52;;;;;;;8.18;2.78;;;23.50;82.40;;;;;;5074800;28;20033;-69
2022/05/22 08:35:23;;;;;;;8.50;2.90;;;22.60;83.10;;;;;;5074593;28;20386;-69
2022/05/22 08:37:49;;;;;;;9.38;2.92;;;21.60;85.40;;;;;;5074533;28;20531;-69
2022/05/22 08:40:16;;;;;;;9.18;2.65;;;21.90;87.60;;;;;;5073329;28;20385;-69
2022/05/22 08:42:51;;;;;;;8.18;3.03;;;22.30;83.20;;;;;;5073072;28;20497;-69
2022/05/22 08:45:27;;;;;;;8.98;2.85;;;23.10;81.20;;;;;;5074293;28;20031;-69
2022/05/22 08:48:15;;;;;;;7.35;2.90;;;22.90;84.70;;;;;;5073611;28;20021;-69
2022/05/22 08:50:42;;;;;;;6.97;2.70;;;23.90;78.90;;;;;;5074141;28;20356;-69
2022/05/22 08:53:22;;;;;;;7.65;2.40;;;24.50;77.30;;;;;;5074085;28;20466;-69
2022/05/22 08:59:11;;;;;;;7.15;2.60;;;24.80;75.40;;;;;;5073741;28;20394;-70
2022/05/22 09:02:06;;;;;;;6.68;2.65;;;25.00;75.00;;;;;;5072241;28;20031;-70
2022/05/22 09:07:51;;;;;;;7.05;2.42;;;25.90;75.20;;;;;;5111083;27;20434;-69
2022/05/22 09:10:38;;;;;;;9.57;2.58;;;25.60;72.90;;;;;;5110907;28;20034;-69
2022/05/22 09:13:14;;;;;;;6.60;2.58;;;25.10;74.00;;;;;;5110923;28;20036;-69
2022/05/22 09:15:47;;;;;;;8.48;2.63;;;24.90;77.10;;;;;;5109702;28;20028;-69
2022/05/22 09:18:35;;;;;;;13.55;3.10;;;24.20;79.10;;;;;;5093293;28;20035;-69
2022/05/22 09:21:16;;;;;;;8.88;2.85;;;24.70;75.20;;;;;;5109564;28;20446;-69
2022/05/22 09:24:04;;;;;;;8.02;2.90;;;24.70;73.40;;;;;;5092451;28;20055;-69
2022/05/22 09:27:09;;;;;;;8.98;2.80;;;25.40;72.60;;;;;;5110755;28;20028;-69
2022/05/22 09:30:03;;;;;;;6.97;2.67;;;25.10;74.40;;;;;;5110733;28;20016;-69
2022/05/22 09:32:55;;;;;;;8.77;2.65;;;25.70;73.20;;;;;;5110658;28;20508;-69
2022/05/22 09:36:01;;;;;;;6.85;2.65;;;26.30;72.00;;;;;;5110653;28;20028;-69
2022/05/22 09:38:52;;;;;;;9.52;2.92;;;27.40;65.10;;;;;;5110281;28;20023;-69
2022/05/22 09:41:51;;;;;;;10.15;2.90;;;26.40;65.60;;;;;;5110462;28;20102;-69
2022/05/22 09:44:56;;;;;;;10.48;2.78;;;25.30;70.60;;;;;;5110346;28;20085;-69
2022/05/22 09:47:56;;;;;;;5.53;2.42;;;25.10;71.60;;;;;;5110306;28;20485;-70
2022/05/22 09:50:31;;;;;;;9.07;2.38;;;24.50;70.40;;;;;;5091999;28;20028;-70
2022/05/22 09:53:23;;;;;;;5.63;3.03;;;25.20;72.20;;;;;;5110391;28;20502;-69
2022/05/22 09:55:51;;;;;;;8.00;2.53;;;24.60;69.40;;;;;;5110126;28;20020;-69
2022/05/22 09:58:49;;;;;;;4.20;1.88;;;24.50;69.70;;;;;;5109147;28;20020;-69
2022/05/22 10:01:39;;;;;;;6.07;2.38;;;24.50;68.40;;;;;;5110013;28;20026;-69
2022/05/22 10:04:14;;;;;;;9.23;2.75;;;24.90;68.70;;;;;;5109922;28;20441;-69
2022/05/22 10:07:17;;;;;;;8.50;2.70;;;25.30;68.20;;;;;;5109340;28;20047;-69
2022/05/22 10:09:58;;;;;;;10.32;2.97;;;25.80;70.60;;;;;;5105933;28;20506;-69
2022/05/22 10:12:44;;;;;;;7.00;2.60;;;25.50;68.20;;;;;;5109709;28;20016;-69
2022/05/22 10:15:21;;;;;;;10.32;2.83;;;24.60;72.00;;;;;;5091065;28;20114;-70
2022/05/22 10:18:14;;;;;;;9.98;2.60;;;24.40;72.60;;;;;;5100505;28;20020;-69
2022/05/22 10:20:53;;;;;;;9.00;2.83;;;23.70;73.60;;;;;;5096067;28;20101;-70
2022/05/22 10:26:35;;;;;;;10.10;2.65;;;22.80;77.40;;;;;;5090819;28;20397;-69
2022/05/22 10:29:22;;;;;;;9.13;3.45;;;23.80;79.00;;;;;;5090745;28;20536;-69
2022/05/22 10:32:00;;;;;;;8.63;3.05;;;24.60;69.90;;;;;;5090719;28;20024;-69
2022/05/22 10:34:39;;;;;;;10.18;3.35;;;25.60;72.30;;;;;;5090612;28;20032;-69
2022/05/22 10:40:06;;;;;;;10.88;4.95;;;24.30;75.20;;;;;;5111118;27;20044;-70
2022/05/22 10:42:45;;;;;;;14.23;6.25;;;24.10;73.20;;;;;;5111109;28;20066;-70
2022/05/22 10:45:35;;;;;;;11.85;4.90;;;23.50;73.70;;;;;;5109781;28;20023;-70
2022/05/22 10:48:13;;;;;;;11.57;5.22;;;23.50;76.40;;;;;;5111002;28;20019;-69
2022/05/22 10:51:07;;;;;;;12.30;4.35;;;23.40;76.20;;;;;;5109619;28;20024;-70
2022/05/22 10:53:40;;;;;;;9.90;4.85;;;23.20;76.60;;;;;;5110839;28;20020;-69
2022/05/22 10:56:17;;;;;;;10.25;4.90;;;23.80;77.00;;;;;;5110800;28;20030;-69
2022/05/22 10:59:01;;;;;;;12.85;5.05;;;24.00;72.40;;;;;;5109372;28;20474;-69
2022/05/22 11:01:31;;;;;;;10.57;7.43;;;24.10;75.80;;;;;;5109559;28;20039;-69
2022/05/22 11:04:16;;;;;;;11.52;6.32;;;23.50;74.30;;;;;;5110605;28;20073;-69
2022/05/22 11:07:00;;;;;;;14.70;6.70;;;23.50;78.20;;;;;;5110549;28;20041;-69
2022/05/22 11:09:29;;;;;;;13.85;6.82;;;23.00;76.70;;;;;;5110568;28;20074;-69
2022/05/22 11:12:13;;;;;;;14.13;6.90;;;22.20;79.10;;;;;;5110416;28;20028;-69
2022/05/22 11:14:40;;;;;;;12.85;5.53;;;22.50;79.10;;;;;;5110385;28;20030;-69
2022/05/22 11:17:09;;;;;;;13.77;6.07;;;22.50;86.10;;;;;;5110399;28;20035;-69
2022/05/22 11:19:39;;;;;;;12.20;6.35;;;22.70;80.80;;;;;;5110273;28;20023;-69
2022/05/22 11:22:27;;;;;;;13.15;6.72;;;23.20;82.20;;;;;;5110360;28;20028;-69
2022/05/22 11:25:06;;;;;;;12.57;6.35;;;23.40;75.50;;;;;;5110353;28;20016;-69
2022/05/22 11:30:35;;;;;;;15.57;7.38;;;23.40;76.90;;;;;;5111209;27;20453;-70
2022/05/22 11:33:32;;;;;;;13.90;7.05;;;23.20;75.50;;;;;;5110889;28;20042;-70
2022/05/22 11:36:26;;;;;;;12.95;7.10;;;22.10;77.50;;;;;;5110914;27;20548;-69
2022/05/22 11:39:31;;;;;;;12.30;6.45;;;21.60;80.10;;;;;;5110807;28;20085;-70
2022/05/22 11:42:14;;;;;;;11.82;5.90;;;21.80;82.50;;;;;;5110696;28;20111;-70
2022/05/22 11:45:20;;;;;;;7.87;5.17;;;21.80;84.10;;;;;;5110774;28;20024;-69
2022/05/22 11:48:11;;;;;;;13.57;5.93;;;22.10;88.30;;;;;;5110477;28;20257;-69
2022/05/22 11:51:06;;;;;;;13.90;5.57;;;21.80;83.70;;;;;;5110675;28;20059;-69
2022/05/22 11:53:56;;;;;;;9.98;5.53;;;21.80;88.20;;;;;;5110455;28;20036;-69
2022/05/22 11:56:36;;;;;;;14.57;6.50;;;22.20;83.30;;;;;;5110414;28;20032;-69
2022/05/22 11:59:20;;;;;;;14.40;7.30;;;21.70;82.80;;;;;;5110611;28;20518;-69
2022/05/22 12:02:06;;;;;;;12.10;6.50;;;21.40;81.40;;;;;;5109174;28;20050;-69
2022/05/22 12:07:47;;;;;;;14.90;6.78;;;21.70;83.00;;;;;;5070466;28;20354;-69
2022/05/22 12:10:23;;;;;;;13.52;6.60;;;22.00;82.50;;;;;;5070433;28;20047;-69
2022/05/22 12:13:09;;;;;;;11.27;5.95;;;21.70;78.80;;;;;;5070667;28;20108;-69
2022/05/22 12:15:43;;;;;;;11.75;6.50;;;22.10;83.20;;;;;;5070430;28;20107;-70
2022/05/22 12:18:42;;;;;;;10.23;5.68;;;22.80;83.00;;;;;;5069558;28;20056;-70
2022/05/22 12:21:48;;;;;;;12.98;5.68;;;22.90;81.10;;;;;;5069274;28;20033;-70
2022/05/22 12:24:30;;;;;;;12.93;5.75;;;22.10;83.70;;;;;;5070084;28;20056;-70
2022/05/22 12:26:58;;;;;;;10.00;6.40;;;21.80;84.20;;;;;;5070021;28;20021;-70
2022/05/22 12:29:34;;;;;;;10.52;5.70;;;21.90;79.90;;;;;;5070229;28;20025;-70
2022/05/22 12:32:10;;;;;;;12.32;6.18;;;21.80;81.60;;;;;;5070106;28;20017;-70
2022/05/22 12:34:44;;;;;;;12.82;6.05;;;21.70;85.00;;;;;;5070024;28;20048;-70
2022/05/22 12:37:16;;;;;;;10.68;5.97;;;21.60;81.80;;;;;;5070016;28;20028;-70
2022/05/22 12:39:47;;;;;;;10.38;5.32;;;21.90;79.60;;;;;;5069942;28;20482;-70
2022/05/22 12:42:20;;;;;;;10.80;5.43;;;21.80;80.80;;;;;;5069865;28;20032;-70
2022/05/22 12:44:45;;;;;;;10.02;5.30;;;22.00;77.50;;;;;;5069827;28;20123;-70
2022/05/22 12:47:15;;;;;;;10.07;5.57;;;22.30;78.50;;;;;;5069667;28;20454;-70
2022/05/22 12:49:53;;;;;;;11.25;5.22;;;22.40;80.50;;;;;;5068493;28;20467;-70
2022/05/22 12:55:19;;;;;;;15.10;5.53;;;22.20;80.10;;;;;;5111039;27;20355;-69
2022/05/22 12:57:53;;;;;;;11.25;5.60;;;22.00;84.50;;;;;;5109861;28;20107;-69
2022/05/22 13:00:33;;;;;;;10.77;4.97;;;21.40;82.70;;;;;;5111040;28;20073;-69
2022/05/22 13:06:20;;;;;;;12.13;5.22;;;21.70;86.60;;;;;;5111174;27;20351;-69
2022/05/22 13:09:05;;;;;;;8.43;4.40;;;21.70;82.00;;;;;;5110993;28;20428;-69
2022/05/22 13:11:42;;;;;;;11.90;4.90;;;21.70;82.80;;;;;;5111004;28;20020;-69
2022/05/22 13:14:30;;;;;;;11.45;6.00;;;21.70;82.60;;;;;;5109595;28;20063;-69
2022/05/22 13:16:57;;;;;;;8.52;4.82;;;22.10;83.10;;;;;;5110829;28;20023;-69
2022/05/22 13:19:25;;;;;;;10.35;5.07;;;22.10;82.40;;;;;;5109702;28;20502;-69
2022/05/22 13:21:52;;;;;;;9.43;4.85;;;22.30;82.60;;;;;;5109397;28;20035;-69
2022/05/22 13:24:23;;;;;;;12.52;5.63;;;22.40;81.60;;;;;;5109510;28;20444;-69
2022/05/22 13:27:21;;;;;;;9.52;4.80;;;22.40;79.60;;;;;;5110790;28;20096;-69
2022/05/22 13:29:56;;;;;;;8.38;4.43;;;22.30;80.60;;;;;;5110502;28;20020;-69
2022/05/22 13:32:29;;;;;;;9.48;4.78;;;22.20;83.90;;;;;;5110687;28;20027;-69